SCSK weather

Colorado Airport
San Clemente, Maule Region, Chile

Public forecast

Using degrees Celsius for public forecast. Weather courtesy of forecast.io.

METAR (pilot weather report)

Closest report is General Freire Airport, 42.0 nm (77.8 km) N. Retrieved 2019/02/19 00:00 UTC (9 minutes ago):

SCIC 190000Z 26006KT 8000 NSC 25/15 Q1012

TAF (pilot weather forecast)

Closest forecast is Carriel Sur Airport, 108.2 nm (200.3 km) SW. Retrieved 2019/02/19 00:00 UTC (9 minutes ago):

TAF SCIE 182204Z 1900/1924 23008KT CAVOK TX21/1918Z TN14/1911Z BECMG 1904/1906 22004KT FEW010 BKN015 TEMPO 1907/1914 30008KT 5000 DZ SCT006 BKN030 BECMG 1916/1918 24012KT FEW015 SCT025